Time;durP1;ratioP1;P1;durP2;ratioP2;P2;SDS_P1;SDS_P2;PMS_P1;PMS_P2;Temp;Humidity;BMP_temperature;BMP_pressure;BME280_temperature;BME280_humidity;BME280_pressure;Samples;Min_cycle;Max_cycle;Signal;HPM_P1;HPM_P2
2022/10/19 00:01:19;;;;;;;12.03;7.37;;;;;;;13.56;43.02;100469.01;1736836;82;21058;-72
2022/10/19 00:03:50;;;;;;;11.75;6.80;;;;;;;13.53;43.15;100461.52;1736721;82;20971;-71
2022/10/19 00:06:28;;;;;;;11.78;7.22;;;;;;;13.50;43.23;100453.48;1737156;82;20999;-72
2022/10/19 00:09:02;;;;;;;12.25;7.30;;;;;;;13.50;43.38;100462.07;1736775;82;21054;-72
2022/10/19 00:11:32;;;;;;;11.63;7.28;;;;;;;13.49;43.49;100454.56;1736393;81;21029;-72
2022/10/19 00:13:59;;;;;;;12.88;6.92;;;;;;;13.49;43.43;100451.05;1735473;81;21065;-72
2022/10/19 00:16:31;;;;;;;14.15;7.53;;;;;;;13.46;43.61;100446.24;1736914;82;20986;-72
2022/10/19 00:19:01;;;;;;;14.07;8.03;;;;;;;13.44;43.60;100437.14;1736471;82;21003;-71
2022/10/19 00:21:30;;;;;;;11.28;6.83;;;;;;;13.42;43.66;100439.84;1736644;82;20998;-72
2022/10/19 00:23:56;;;;;;;12.63;7.25;;;;;;;13.40;43.72;100433.97;1736123;82;21011;-72
2022/10/19 00:26:24;;;;;;;14.23;7.83;;;;;;;13.37;43.84;100428.61;1737112;82;21066;-72
2022/10/19 00:28:55;;;;;;;14.00;7.40;;;;;;;13.37;43.95;100429.41;1711574;82;21190;-72
2022/10/19 00:31:21;;;;;;;12.23;7.30;;;;;;;13.38;43.92;100422.95;1730847;83;21103;-72
2022/10/19 00:33:48;;;;;;;11.95;7.25;;;;;;;13.37;43.87;100418.68;1726513;82;21138;-71
2022/10/19 00:36:21;;;;;;;11.93;7.92;;;;;;;13.37;43.90;100409.29;1730757;83;20959;-71
2022/10/19 00:38:48;;;;;;;13.48;7.75;;;;;;;13.36;43.97;100405.02;1732195;81;21595;-71
2022/10/19 00:41:15;;;;;;;10.65;6.58;;;;;;;13.34;44.05;100399.11;1736411;82;21571;-71
2022/10/19 00:44:02;;;;;;;12.05;6.80;;;;;;;13.34;44.08;100391.61;1736055;81;20989;-71
2022/10/19 00:46:31;;;;;;;12.43;7.62;;;;;;;13.32;44.22;100391.88;1736311;81;21125;-71
2022/10/19 00:49:18;;;;;;;11.40;6.92;;;;;;;13.30;44.33;100390.03;1736645;82;20986;-71
2022/10/19 00:51:54;;;;;;;10.93;7.08;;;;;;;13.29;44.28;100388.95;1736963;82;21008;-72
2022/10/19 00:54:20;;;;;;;14.63;7.20;;;;;;;13.25;44.31;100378.52;1736337;82;21560;-72
2022/10/19 00:56:49;;;;;;;11.70;7.72;;;;;;;13.23;44.33;100376.11;1737137;82;20983;-72
2022/10/19 00:59:19;;;;;;;13.13;6.87;;;;;;;13.21;44.50;100373.44;1736498;82;21007;-73
2022/10/19 01:01:45;;;;;;;13.88;7.80;;;;;;;13.17;44.60;100374.53;1736827;82;21050;-72
2022/10/19 01:04:12;;;;;;;12.78;7.33;;;;;;;13.14;44.74;100363.81;1736848;82;21058;-72
2022/10/19 01:06:40;;;;;;;9.83;6.50;;;;;;;13.12;44.84;100361.14;1736723;82;21613;-72
2022/10/19 01:09:07;;;;;;;12.53;7.92;;;;;;;13.09;45.01;100358.47;1736613;82;20943;-72
2022/10/19 01:11:42;;;;;;;13.03;6.87;;;;;;;13.07;45.19;100354.49;1737203;82;20983;-72
2022/10/19 01:14:46;;;;;;;12.70;7.95;;;;;;;13.05;45.24;100356.64;1736692;82;21589;-73
2022/10/19 01:17:36;;;;;;;9.08;6.20;;;;;;;13.03;45.31;100348.06;1737113;82;20978;-72
2022/10/19 01:20:43;;;;;;;13.20;6.83;;;;;;;13.01;45.40;100350.23;1736925;82;21220;-72
2022/10/19 01:23:45;;;;;;;12.63;7.33;;;;;;;12.98;45.47;100344.09;1736907;82;20975;-71
2022/10/19 01:26:46;;;;;;;;;;;;;;;12.96;45.62;100336.85;1739644;82;21474;-71
2022/10/19 01:29:39;;;;;;;10.95;6.37;;;;;;;12.93;45.76;100338.74;1736562;82;20178;-72
2022/10/19 01:32:14;;;;;;;10.68;7.08;;;;;;;12.88;46.05;100336.91;1735178;82;21015;-71
2022/10/19 01:35:15;;;;;;;12.07;7.05;;;;;;;12.86;46.10;100336.38;1733576;82;21138;-71
2022/10/19 01:37:48;;;;;;;14.75;7.67;;;;;;;12.85;46.15;100328.08;1733571;82;21452;-71
2022/10/19 01:40:42;;;;;;;11.30;6.58;;;;;;;12.82;46.44;100330.77;1733894;82;21490;-71
2022/10/19 01:43:34;;;;;;;14.70;6.90;;;;;;;12.81;46.62;100335.87;1733689;82;21038;-71
2022/10/19 01:46:12;;;;;;;11.78;6.65;;;;;;;12.81;46.57;100331.85;1734271;82;21039;-71
2022/10/19 01:48:44;;;;;;;11.40;7.05;;;;;;;12.81;46.64;100326.49;1730893;82;21495;-71
2022/10/19 01:51:29;;;;;;;12.45;7.22;;;;;;;12.84;46.71;100322.47;1734572;82;21055;-71
2022/10/19 01:53:59;;;;;;;14.30;7.17;;;;;;;12.86;46.71;100317.06;1733320;82;21109;-71
2022/10/19 01:56:27;;;;;;;12.75;7.03;;;;;;;12.88;46.84;100314.13;1715914;82;21494;-71
2022/10/19 01:58:56;;;;;;;13.50;7.08;;;;;;;12.86;47.01;100314.38;1733818;82;21478;-72
2022/10/19 02:01:22;;;;;;;10.10;6.80;;;;;;;12.86;47.08;100313.05;1734054;82;21502;-71
2022/10/19 02:03:50;;;;;;;13.20;7.40;;;;;;;12.86;47.12;100306.34;1733713;81;21511;-72
2022/10/19 02:06:17;;;;;;;12.80;6.97;;;;;;;12.87;47.15;100298.58;1730577;81;21059;-72
2022/10/19 02:08:47;;;;;;;11.78;6.75;;;;;;;12.88;47.20;100302.06;1733416;81;20972;-72
2022/10/19 02:11:15;;;;;;;11.18;6.67;;;;;;;12.88;47.35;100296.70;1737252;82;21116;-73
2022/10/19 02:13:42;;;;;;;12.15;7.25;;;;;;;12.87;47.44;100294.56;1736783;82;21177;-72
2022/10/19 02:16:21;;;;;;;12.95;7.65;;;;;;;12.87;47.60;100295.11;1736231;81;21434;-73
2022/10/19 02:18:49;;;;;;;12.82;7.22;;;;;;;12.86;47.73;100294.28;1736006;81;21586;-71
2022/10/19 02:21:17;;;;;;;10.82;7.25;;;;;;;12.86;47.82;100282.22;1736616;81;21002;-71
2022/10/19 02:23:44;;;;;;;11.83;7.35;;;;;;;12.88;47.87;100284.64;1736967;82;21643;-71
2022/10/19 02:26:10;;;;;;;17.12;7.95;;;;;;;12.87;47.98;100277.14;1737032;82;21236;-71
2022/10/19 02:28:37;;;;;;;13.85;7.67;;;;;;;12.87;48.19;100272.32;1736386;82;21002;-71
2022/10/19 02:31:04;;;;;;;12.47;8.03;;;;;;;12.87;48.30;100275.80;1736263;81;21501;-71
2022/10/19 02:33:31;;;;;;;10.90;6.37;;;;;;;12.91;48.29;100276.84;1736530;82;21006;-71
2022/10/19 02:35:57;;;;;;;12.40;8.03;;;;;;;12.91;48.48;100274.70;1735873;81;21066;-71
2022/10/19 02:38:25;;;;;;;12.95;8.25;;;;;;;12.90;48.70;100273.91;1736208;82;21292;-72
2022/10/19 02:41:09;;;;;;;15.35;8.13;;;;;;;12.94;48.69;100269.33;1709997;82;21010;-71
2022/10/19 02:43:38;;;;;;;12.00;7.55;;;;;;;12.96;48.63;100269.83;1730559;82;21504;-71
2022/10/19 02:46:20;;;;;;;18.05;8.65;;;;;;;12.97;48.79;100264.20;1737085;82;21002;-71
2022/10/19 02:48:49;;;;;;;13.78;7.92;;;;;;;12.99;48.83;100264.70;1736904;82;21105;-71
2022/10/19 02:51:38;;;;;;;13.98;7.35;;;;;;;12.99;48.91;100258.55;1736850;81;21056;-71
2022/10/19 02:54:06;;;;;;;14.60;7.25;;;;;;;13.00;49.01;100263.64;1736574;82;20994;-71
2022/10/19 02:56:34;;;;;;;13.40;8.33;;;;;;;13.01;49.07;100266.58;1736629;81;21059;-71
2022/10/19 02:59:02;;;;;;;14.98;7.90;;;;;;;13.00;49.29;100264.98;1736367;82;21553;-72
2022/10/19 03:01:28;;;;;;;13.18;8.30;;;;;;;12.99;49.38;100266.05;1736669;82;21029;-71
2022/10/19 03:03:55;;;;;;;12.43;7.37;;;;;;;12.97;49.53;100262.86;1735787;81;21609;-72
2022/10/19 03:06:22;;;;;;;14.28;8.68;;;;;;;12.98;49.58;100261.78;1735944;81;21014;-72
2022/10/19 03:08:50;;;;;;;12.68;8.10;;;;;;;12.99;49.63;100260.69;1732602;82;21079;-71
2022/10/19 03:11:18;;;;;;;16.62;9.03;;;;;;;13.00;49.74;100253.47;1735818;81;20943;-71
2022/10/19 03:13:45;;;;;;;10.53;7.33;;;;;;;13.02;49.77;100252.62;1735787;82;21081;-71
2022/10/19 03:16:12;;;;;;;12.73;7.85;;;;;;;13.03;49.96;100254.22;1736107;81;21232;-71
2022/10/19 03:18:39;;;;;;;13.93;8.03;;;;;;;13.04;49.95;100261.20;1736813;82;20999;-71
2022/10/19 03:21:10;;;;;;;12.47;8.03;;;;;;;13.05;49.90;100254.20;1736880;82;21006;-71
2022/10/19 03:23:39;;;;;;;14.58;8.08;;;;;;;13.07;49.93;100253.94;1736331;81;21477;-72
2022/10/19 03:26:07;;;;;;;12.43;7.33;;;;;;;13.08;49.92;100246.95;1736467;82;21406;-71
2022/10/19 03:28:33;;;;;;;15.98;9.05;;;;;;;13.09;50.08;100248.53;1735995;82;21076;-71
2022/10/19 03:31:02;;;;;;;14.80;8.68;;;;;;;13.09;50.04;100235.12;1733690;82;21625;-72
2022/10/19 03:33:29;;;;;;;13.55;8.25;;;;;;;13.12;50.10;100231.09;1734396;81;21058;-71
2022/10/19 03:36:25;;;;;;;13.60;8.40;;;;;;;13.14;50.16;100234.30;1736823;82;21034;-72
2022/10/19 03:38:55;;;;;;;12.03;7.80;;;;;;;13.17;50.13;100228.38;1729512;81;21524;-72
2022/10/19 03:41:24;;;;;;;14.78;9.10;;;;;;;13.21;50.07;100229.41;1737072;82;21176;-72
2022/10/19 03:43:51;;;;;;;19.52;12.25;;;;;;;13.27;49.99;100232.34;1735976;81;21439;-72
2022/10/19 03:46:18;;;;;;;25.50;16.60;;;;;;;13.30;50.13;100238.48;1736219;81;20959;-72
2022/10/19 03:48:45;;;;;;;23.55;15.88;;;;;;;13.25;50.25;100244.42;1734972;81;20969;-72
2022/10/19 03:51:18;;;;;;;22.50;13.88;;;;;;;13.21;50.24;100243.36;1736552;81;21089;-72
2022/10/19 03:53:45;;;;;;;21.05;13.72;;;;;;;13.16;50.29;100228.09;1735844;81;21159;-71
2022/10/19 03:56:18;;;;;;;17.00;9.95;;;;;;;13.12;50.45;100223.05;1736292;81;21575;-71
2022/10/19 03:58:45;;;;;;;;;;;;;;;13.08;50.76;100220.13;1739649;82;20962;-73
2022/10/19 04:01:19;;;;;;;14.63;8.95;;;;;;;13.07;51.22;100213.72;1736421;81;20155;-71
2022/10/19 04:03:45;;;;;;;13.58;8.68;;;;;;;13.11;51.34;100209.39;1704667;84;21526;-71
2022/10/19 04:06:16;;;;;;;15.32;9.30;;;;;;;13.16;51.43;100202.63;1704729;83;21255;-71
2022/10/19 04:08:43;;;;;;;12.43;8.58;;;;;;;13.21;51.52;100203.13;1728957;81;20994;-72
2022/10/19 04:11:13;;;;;;;16.25;8.98;;;;;;;13.27;51.41;100192.66;1734175;81;21057;-71
2022/10/19 04:13:40;;;;;;;12.88;8.80;;;;;;;13.35;51.41;100190.67;1736184;81;21089;-72
2022/10/19 04:16:08;;;;;;;15.18;9.80;;;;;;;13.40;51.48;100204.05;1737091;82;20982;-71
2022/10/19 04:18:35;;;;;;;16.57;9.25;;;;;;;13.44;51.57;100210.44;1736808;82;21085;-71
2022/10/19 04:21:03;;;;;;;16.07;9.03;;;;;;;13.45;51.69;100204.53;1736215;81;21539;-71
2022/10/19 04:23:34;;;;;;;15.05;9.23;;;;;;;13.50;51.59;100207.17;1734086;81;21083;-71
2022/10/19 04:26:06;;;;;;;14.28;9.20;;;;;;;13.54;51.59;100213.02;1736819;82;21081;-72
2022/10/19 04:28:34;;;;;;;14.38;8.43;;;;;;;13.57;51.67;100214.33;1733486;81;21007;-71
2022/10/19 04:31:03;;;;;;;13.25;8.85;;;;;;;13.59;51.63;100215.66;1735188;81;21153;-71
2022/10/19 04:33:30;;;;;;;14.45;8.68;;;;;;;13.62;51.72;100218.29;1735164;82;21359;-72
2022/10/19 04:36:00;;;;;;;14.83;9.13;;;;;;;13.63;51.78;100212.41;1735541;81;20967;-71
2022/10/19 04:38:28;;;;;;;14.28;9.30;;;;;;;13.64;51.83;100213.99;1736069;82;21081;-72
2022/10/19 04:40:55;;;;;;;13.83;9.65;;;;;;;13.65;51.93;100223.63;1736681;82;20986;-71
2022/10/19 04:43:22;;;;;;;13.72;9.15;;;;;;;13.67;52.06;100216.11;1735933;81;21539;-71
2022/10/19 04:45:49;;;;;;;14.05;9.75;;;;;;;13.68;52.22;100227.09;1736809;82;21116;-71
2022/10/19 04:48:16;;;;;;;18.73;10.40;;;;;;;13.66;52.35;100216.66;1736872;82;21014;-71
2022/10/19 04:50:42;;;;;;;13.68;9.40;;;;;;;13.69;52.35;100213.92;1736504;81;21026;-72
2022/10/19 04:53:13;;;;;;;14.70;9.60;;;;;;;13.72;52.45;100216.03;1735016;81;21033;-71
2022/10/19 04:55:41;;;;;;;16.37;9.40;;;;;;;13.75;52.45;100210.89;1736932;82;21121;-71
2022/10/19 04:58:08;;;;;;;15.83;9.98;;;;;;;13.79;52.51;100219.99;1736947;82;21467;-72
2022/10/19 05:00:39;;;;;;;16.07;10.53;;;;;;;13.82;52.55;100222.66;1736712;82;21050;-71
2022/10/19 05:03:06;;;;;;;17.53;10.10;;;;;;;13.87;52.56;100227.16;1736597;82;20979;-72
2022/10/19 05:05:34;;;;;;;18.65;11.40;;;;;;;13.89;52.53;100219.08;1736691;82;21325;-72
2022/10/19 05:08:01;;;;;;;15.68;9.83;;;;;;;13.98;52.45;100220.56;1736745;82;21117;-72
2022/10/19 05:10:27;;;;;;;14.47;10.18;;;;;;;14.05;52.35;100216.45;1736984;82;21562;-71
2022/10/19 05:12:55;;;;;;;18.07;10.57;;;;;;;14.12;52.34;100222.81;1736612;82;21568;-72
2022/10/19 05:15:22;;;;;;;14.70;9.25;;;;;;;14.15;52.41;100230.30;1736972;82;21678;-71
2022/10/19 05:17:48;;;;;;;17.03;10.17;;;;;;;14.17;52.58;100240.19;1736785;82;21061;-72
2022/10/19 05:20:16;;;;;;;16.23;11.05;;;;;;;14.17;52.78;100238.05;1736986;82;21137;-71
2022/10/19 05:22:43;;;;;;;15.73;10.77;;;;;;;14.20;52.92;100243.64;1736510;82;21045;-71
2022/10/19 05:25:10;;;;;;;17.03;11.00;;;;;;;14.21;53.16;100236.38;1737082;82;21117;-72
2022/10/19 05:27:39;;;;;;;16.10;10.23;;;;;;;14.21;53.42;100239.86;1734773;82;21353;-72
2022/10/19 05:30:07;;;;;;;16.40;11.87;;;;;;;14.22;53.97;100242.03;1734210;82;21732;-72
2022/10/19 05:32:36;;;;;;;17.30;12.20;;;;;;;14.23;54.49;100247.10;1733831;82;21187;-71
2022/10/19 05:35:03;;;;;;;22.23;13.60;;;;;;;14.26;54.83;100257.27;1734395;82;21273;-72
2022/10/19 05:37:30;;;;;;;21.83;13.10;;;;;;;14.33;55.33;100272.24;1734223;82;21209;-72
2022/10/19 05:39:57;;;;;;;18.10;12.67;;;;;;;14.37;55.95;100260.61;1734206;82;21250;-72
2022/10/19 05:42:25;;;;;;;19.50;13.07;;;;;;;14.42;56.57;100261.11;1734304;82;21109;-70
2022/10/19 05:44:51;;;;;;;19.03;12.30;;;;;;;14.42;57.21;100257.08;1734165;82;21095;-70
2022/10/19 05:47:18;;;;;;;20.37;13.23;;;;;;;14.42;57.68;100249.81;1734197;82;21188;-70
2022/10/19 05:49:44;;;;;;;19.30;12.90;;;;;;;14.41;57.95;100244.20;1734229;82;21205;-72
2022/10/19 05:52:10;;;;;;;18.37;12.33;;;;;;;14.44;58.12;100249.51;1734166;82;21138;-71
2022/10/19 05:54:38;;;;;;;19.07;12.47;;;;;;;14.44;58.40;100261.05;1734041;82;21302;-71
2022/10/19 05:57:04;;;;;;;22.10;12.40;;;;;;;14.41;59.02;100282.33;1734470;82;21184;-71
2022/10/19 05:59:31;;;;;;;21.27;14.27;;;;;;;14.36;59.40;100281.07;1733902;82;21168;-70
2022/10/19 06:01:58;;;;;;;19.47;13.57;;;;;;;14.37;59.76;100288.03;1733976;82;21155;-71
2022/10/19 06:04:24;;;;;;;18.60;13.20;;;;;;;14.37;60.12;100289.38;1735277;81;21790;-71
2022/10/19 06:06:53;;;;;;;18.50;13.60;;;;;;;14.36;60.64;100286.44;1731188;81;21279;-71
2022/10/19 06:09:19;;;;;;;22.20;13.93;;;;;;;14.36;60.86;100278.38;1735942;81;21122;-71
2022/10/19 06:11:46;;;;;;;19.73;14.50;;;;;;;14.38;61.01;100281.05;1736252;82;21377;-71
2022/10/19 06:27:30;;;;;;;21.40;13.23;;;;;;;15.05;60.85;100293.02;1827553;77;22705;-71
2022/10/19 06:29:57;;;;;;;38.67;15.10;;;;;;;15.03;60.69;100299.22;1766649;79;20974;-74
2022/10/19 06:32:24;;;;;;;30.23;14.27;;;;;;;15.04;60.73;100304.05;1789686;79;21278;-73
2022/10/19 06:34:50;;;;;;;28.83;13.87;;;;;;;15.05;60.78;100305.66;1786215;79;21078;-72
2022/10/19 06:37:17;;;;;;;19.90;12.10;;;;;;;15.04;60.77;100315.63;1799056;79;21085;-72
2022/10/19 06:39:45;;;;;;;24.00;12.60;;;;;;;15.03;60.78;100307.84;1799121;79;21362;-73
2022/10/19 06:42:11;;;;;;;16.80;10.97;;;;;;;15.00;60.85;100309.22;1799081;79;21050;-71
2022/10/19 06:44:40;;;;;;;19.23;11.37;;;;;;;14.95;60.92;100312.00;1799173;79;21296;-71
2022/10/19 06:47:07;;;;;;;27.50;11.47;;;;;;;14.94;60.92;100303.13;1798860;79;21073;-72
2022/10/19 06:49:36;;;;;;;25.53;10.93;;;;;;;14.95;60.96;100300.69;1787274;79;21245;-72
2022/10/19 06:52:04;;;;;;;13.87;9.47;;;;;;;14.96;60.92;100301.48;1767506;81;21306;-71
2022/10/19 06:54:31;;;;;;;18.20;10.13;;;;;;;14.97;60.88;100297.17;1768013;80;21281;-74
2022/10/19 06:56:57;;;;;;;19.47;10.30;;;;;;;14.97;60.81;100299.03;1767479;80;21284;-72
2022/10/19 06:59:25;;;;;;;18.23;9.70;;;;;;;14.97;60.76;100314.66;1767552;81;21161;-71
2022/10/19 07:01:51;;;;;;;11.30;8.27;;;;;;;14.98;60.55;100319.48;1767400;81;21295;-72
2022/10/19 07:04:17;;;;;;;18.43;8.33;;;;;;;15.01;60.47;100325.63;1767955;81;21790;-73
2022/10/19 07:06:46;;;;;;;12.20;7.73;;;;;;;15.02;60.21;100328.56;1768394;79;21168;-72
2022/10/19 07:09:12;;;;;;;11.50;7.50;;;;;;;15.03;59.98;100338.77;1773255;79;21303;-71
2022/10/19 07:11:39;;;;;;;11.17;7.30;;;;;;;15.06;59.81;100343.02;1798561;78;21213;-72
2022/10/19 07:14:06;;;;;;;9.30;5.77;;;;;;;15.10;59.70;100342.67;1799278;79;21616;-72
2022/10/19 07:16:33;;;;;;;12.30;6.33;;;;;;;15.11;59.45;100348.89;1819793;78;21252;-72
2022/10/19 07:19:00;;;;;;;10.43;6.00;;;;;;;15.12;59.25;100352.61;1826661;78;21328;-72
2022/10/19 07:21:26;;;;;;;10.13;6.30;;;;;;;15.13;59.14;100358.23;1826307;78;21779;-72
2022/10/19 07:23:52;;;;;;;10.97;5.30;;;;;;;15.16;58.80;100346.89;1810493;78;21789;-73
2022/10/19 07:26:26;;;;;;;9.07;4.60;;;;;;;15.19;58.68;100340.93;1793639;79;21247;-73
2022/10/19 07:28:55;;;;;;;7.20;4.20;;;;;;;15.25;58.41;100342.45;1793603;80;21310;-73
2022/10/19 07:31:23;;;;;;;7.10;4.07;;;;;;;15.29;58.04;100339.97;1793329;80;21756;-72
2022/10/19 07:33:54;;;;;;;8.37;4.40;;;;;;;15.36;57.82;100334.22;1793767;80;21642;-73
2022/10/19 07:36:22;;;;;;;10.30;4.50;;;;;;;15.43;57.71;100335.98;1793212;80;21818;-73
2022/10/19 07:38:49;;;;;;;11.23;4.20;;;;;;;15.49;57.58;100338.84;1793982;80;21147;-73
2022/10/19 07:41:18;;;;;;;6.60;3.90;;;;;;;15.55;57.37;100329.59;1814203;78;21293;-73
2022/10/19 07:43:46;;;;;;;7.57;3.97;;;;;;;15.61;57.02;100332.45;1825997;78;21190;-71
2022/10/19 07:46:16;;;;;;;7.40;3.87;;;;;;;15.68;56.98;100330.20;1825910;78;21118;-72
2022/10/19 07:48:43;;;;;;;5.53;3.10;;;;;;;15.75;56.67;100329.02;1826007;78;21153;-72
2022/10/19 07:51:11;;;;;;;4.97;3.03;;;;;;;15.78;55.97;100327.08;1758521;81;21143;-72
2022/10/19 07:53:37;;;;;;;6.87;2.90;;;;;;;15.78;55.73;100327.08;1757329;81;21217;-74
2022/10/19 07:56:07;;;;;;;4.57;2.50;;;;;;;15.79;55.64;100334.05;1789654;80;21238;-72
2022/10/19 07:58:35;;;;;;;5.40;2.90;;;;;;;15.81;55.56;100325.94;1757598;81;21932;-73
2022/10/19 08:01:13;;;;;;;38.13;6.23;;;;;;;15.84;55.55;100340.16;1758462;81;21266;-72
2022/10/19 08:03:41;;;;;;;5.97;3.00;;;;;;;15.93;55.49;100323.56;1789770;80;21173;-71
2022/10/19 08:06:10;;;;;;;40.27;9.63;;;;;;;15.93;55.49;100323.56;1758568;81;21332;-72
2022/10/19 08:08:39;;;;;;;9.60;3.40;;;;;;;15.95;54.87;100318.66;1726509;81;21783;-72
2022/10/19 08:11:22;;;;;;;5.17;2.47;;;;;;;15.99;54.66;100312.67;1753118;81;21425;-71
2022/10/19 08:13:49;;;;;;;5.03;2.70;;;;;;;16.00;54.61;100303.52;1741757;81;21783;-71
2022/10/19 08:16:36;;;;;;;9.10;3.33;;;;;;;16.01;54.70;100311.84;1770057;81;21301;-71
2022/10/19 08:19:10;;;;;;;13.07;3.00;;;;;;;16.03;54.82;100311.00;1779511;80;21355;-72
2022/10/19 08:21:40;;;;;;;13.97;4.03;;;;;;;16.05;54.83;100310.13;1779375;80;21343;-72
2022/10/19 08:24:07;;;;;;;6.20;2.83;;;;;;;16.09;54.54;100310.60;1758947;81;21773;-73
2022/10/19 08:26:39;;;;;;;7.10;3.07;;;;;;;16.11;54.32;100300.86;1758255;81;21422;-74
2022/10/19 08:29:11;;;;;;;5.17;3.00;;;;;;;16.08;54.34;100298.20;1758717;81;21334;-74
2022/10/19 08:31:40;;;;;;;9.50;3.23;;;;;;;16.07;54.41;100299.87;1787404;80;21205;-73
2022/10/19 08:34:08;;;;;;;8.53;3.87;;;;;;;16.08;54.38;100313.02;1758533;81;21239;-72
2022/10/19 08:36:35;;;;;;;8.00;4.07;;;;;;;16.08;54.38;100313.02;1789498;80;21417;-73
2022/10/19 08:39:05;;;;;;;7.40;3.17;;;;;;;16.11;54.53;100309.73;1758495;81;21822;-72
2022/10/19 08:42:00;;;;;;;6.17;3.10;;;;;;;16.14;54.46;100314.52;1758330;81;21336;-70
2022/10/19 08:44:48;;;;;;;6.80;2.90;;;;;;;16.20;54.53;100311.74;1789811;80;21320;-72
2022/10/19 08:47:30;;;;;;;95.47;13.60;;;;;;;16.23;54.41;100309.80;1758323;81;21246;-73
2022/10/19 08:49:57;;;;;;;5.62;2.50;;;;;;;16.27;54.21;100318.31;1791355;80;21328;-72
2022/10/19 08:52:33;;;;;;;9.97;3.63;;;;;;;16.29;54.00;100322.08;1792984;80;21086;-72
2022/10/19 08:55:13;;;;;;;6.57;2.60;;;;;;;16.29;53.89;100332.30;1792893;80;21776;-73
2022/10/19 08:57:56;;;;;;;13.10;3.60;;;;;;;16.30;53.45;100329.84;1793333;80;21288;-73
2022/10/19 09:00:44;;;;;;;19.63;3.77;;;;;;;16.33;52.94;100328.45;1792819;80;21408;-73
2022/10/19 09:03:34;;;;;;;7.43;2.30;;;;;;;16.35;52.88;100327.58;1793455;80;21347;-72
2022/10/19 09:06:18;;;;;;;18.90;3.23;;;;;;;16.35;52.88;100327.58;1790211;80;21920;-73
2022/10/19 09:08:41;;;;;;;6.00;2.37;;;;;;;16.40;53.14;100324.25;1662035;83;21493;-75
2022/10/19 09:11:09;;;;;;;6.30;2.20;;;;;;;16.46;53.00;100328.98;1776121;80;21324;-72
2022/10/19 09:13:47;;;;;;;4.30;2.23;;;;;;;16.50;52.85;100317.84;1790228;80;21781;-71
2022/10/19 09:16:15;;;;;;;5.03;2.93;;;;;;;16.51;52.82;100326.17;1789500;80;21376;-73
2022/10/19 09:18:43;;;;;;;6.73;2.60;;;;;;;16.54;52.80;100320.17;1790051;80;21344;-72
2022/10/19 09:21:20;;;;;;;3.63;2.03;;;;;;;16.56;52.87;100327.98;1789543;80;21865;-72
2022/10/19 09:24:07;;;;;;;20.63;4.30;;;;;;;16.56;52.87;100327.98;1762469;80;21387;-72
2022/10/19 09:26:42;;;;;;;8.30;2.80;;;;;;;16.53;52.77;100325.33;1758174;81;21424;-73
2022/10/19 09:29:15;;;;;;;4.47;2.40;;;;;;;16.50;52.64;100320.53;1757408;81;21396;-72
2022/10/19 09:31:42;;;;;;;5.23;2.40;;;;;;;16.50;52.64;100320.53;1726498;82;21497;-73
2022/10/19 09:34:29;;;;;;;6.33;2.20;;;;;;;16.51;52.54;100319.42;1758637;81;21825;-72
2022/10/19 09:36:57;;;;;;;5.83;1.87;;;;;;;16.42;51.19;100323.95;1753180;81;21448;-72
2022/10/19 09:39:25;;;;;;;3.97;1.93;;;;;;;16.43;51.33;100318.02;1749338;81;21472;-71
2022/10/19 09:41:56;;;;;;;3.03;1.53;;;;;;;16.43;51.33;100318.02;1758559;80;21828;-73
2022/10/19 09:44:23;;;;;;;2.90;1.72;;;;;;;16.48;51.21;100309.25;1728564;82;21829;-72
2022/10/19 09:47:11;;;;;;;5.27;2.00;;;;;;;16.56;51.21;100310.45;1758423;81;21510;-72
2022/10/19 09:49:47;;;;;;;3.50;1.60;;;;;;;16.73;51.07;100312.50;1728263;82;21449;-74
2022/10/19 09:52:38;;;;;;;4.57;1.90;;;;;;;16.81;50.41;100310.45;1758399;81;21449;-73
2022/10/19 09:55:28;;;;;;;7.23;2.63;;;;;;;16.81;50.41;100310.45;1728076;82;21777;-73
2022/10/19 09:58:05;;;;;;;37.07;5.03;;;;;;;16.92;50.46;100305.09;1757866;81;22041;-73
2022/10/19 10:00:41;;;;;;;12.53;2.87;;;;;;;16.95;50.06;100315.27;1728034;82;21648;-72
2022/10/19 10:03:29;;;;;;;5.70;2.37;;;;;;;16.95;50.06;100315.27;1758744;81;22755;-72
2022/10/19 10:06:00;;;;;;;5.03;1.97;;;;;;;16.86;50.15;100311.14;1758417;81;22051;-73
2022/10/19 10:08:30;;;;;;;6.28;2.30;;;;;;;16.74;50.15;100317.58;1758702;81;22024;-71
2022/10/19 10:11:12;;;;;;;4.37;2.15;;;;;;;16.68;50.22;100304.52;1773415;80;21011;-72
2022/10/19 10:13:42;;;;;;;;;;;;;;;16.65;50.38;100308.64;1759066;81;21046;-71
2022/10/19 10:16:12;;;;;;;48.20;6.27;;;;;;;16.64;50.54;100300.28;1758363;81;20139;-72
2022/10/19 10:19:02;;;;;;;;;;;;;;;16.63;50.68;100296.80;1756268;81;21904;-72
2022/10/19 10:21:51;;;;;;;6.50;2.10;;;;;;;16.64;50.76;100306.47;1756533;81;20194;-72
2022/10/19 10:24:20;;;;;;;7.10;2.33;;;;;;;16.65;50.82;100300.00;1789410;80;21184;-73
2022/10/19 10:26:56;;;;;;;7.43;2.40;;;;;;;16.73;51.15;100290.94;1758441;81;21325;-72
2022/10/19 10:29:28;;;;;;;4.87;2.30;;;;;;;16.80;51.19;100289.98;1758742;81;21419;-72
2022/10/19 10:32:12;;;;;;;5.43;2.40;;;;;;;16.83;51.26;100289.38;1728815;81;22091;-72
2022/10/19 10:34:46;;;;;;;5.57;2.10;;;;;;;16.98;51.15;100279.59;1758845;81;21688;-71
2022/10/19 10:37:38;;;;;;;4.70;2.10;;;;;;;16.96;50.62;100274.25;1758321;81;21496;-72
2022/10/19 10:40:05;;;;;;;;;;;;;;;16.96;50.62;100274.25;1729161;83;22193;-73
2022/10/19 10:42:41;;;;;;;5.03;2.17;;;;;;;16.91;50.71;100265.70;1758404;81;20315;-74
2022/10/19 10:45:30;;;;;;;3.40;2.00;;;;;;;16.91;50.71;100265.70;1757201;81;21576;-72
2022/10/19 10:47:57;;;;;;;3.57;1.97;;;;;;;16.76;50.93;100274.17;1774558;80;21463;-73
2022/10/19 10:50:27;;;;;;;4.73;2.00;;;;;;;16.68;51.05;100268.91;1789405;80;21522;-72
2022/10/19 10:53:00;;;;;;;4.40;2.07;;;;;;;16.56;51.46;100272.15;1724773;83;21594;-73
2022/10/19 10:55:29;;;;;;;3.73;1.90;;;;;;;16.56;51.46;100272.15;1724786;83;21535;-73
2022/10/19 10:58:05;;;;;;;4.73;2.13;;;;;;;16.54;51.44;100272.20;1725167;83;21496;-73
2022/10/19 11:00:33;;;;;;;4.03;2.10;;;;;;;16.60;51.92;100260.99;1724574;83;21519;-72
2022/10/19 11:03:17;;;;;;;4.27;2.00;;;;;;;16.64;51.59;100262.53;1725184;83;21468;-72
2022/10/19 11:05:49;;;;;;;4.70;2.00;;;;;;;16.64;51.59;100262.53;1739836;80;21477;-73
2022/10/19 11:08:50;;;;;;;4.47;2.40;;;;;;;16.72;51.24;100258.33;1752806;81;21657;-73
2022/10/19 11:11:29;;;;;;;4.53;2.50;;;;;;;16.72;51.24;100258.33;1776663;80;21441;-72
2022/10/19 11:14:26;;;;;;;5.63;2.90;;;;;;;16.81;51.27;100249.77;1788853;80;21152;-72
2022/10/19 11:16:54;;;;;;;5.80;2.70;;;;;;;17.00;50.65;100238.80;1789554;80;21570;-72
2022/10/19 11:19:30;;;;;;;7.20;3.00;;;;;;;17.00;50.65;100238.80;1789893;80;21481;-73
2022/10/19 11:22:31;;;;;;;5.33;2.70;;;;;;;17.02;50.47;100226.59;1772453;80;22228;-72
2022/10/19 11:25:24;;;;;;;5.53;2.02;;;;;;;16.98;49.24;100237.77;1774442;80;22220;-71
2022/10/19 11:28:12;;;;;;;;;;;;;;;16.87;47.29;100231.01;1731075;83;21165;-73
2022/10/19 11:31:05;;;;;;;7.60;2.47;;;;;;;16.91;47.23;100226.59;1774451;80;20172;-73
2022/10/19 11:33:47;;;;;;;7.33;1.90;;;;;;;16.96;46.64;100218.94;1728574;83;21546;-72
2022/10/19 11:36:20;;;;;;;10.82;2.08;;;;;;;16.99;45.74;100222.38;1727313;83;22057;-72
2022/10/19 11:38:59;;;;;;;10.57;2.17;;;;;;;16.97;44.94;100204.34;1759968;80;21003;-73
2022/10/19 11:41:40;;;;;;;9.67;2.10;;;;;;;16.94;44.58;100203.05;1722670;83;21788;-73
2022/10/19 11:44:24;;;;;;;6.67;1.90;;;;;;;16.94;44.58;100203.05;1758053;81;21641;-73
2022/10/19 11:46:59;;;;;;;3.83;1.90;;;;;;;17.04;44.49;100198.73;1727846;83;21541;-73
2022/10/19 11:49:41;;;;;;;3.43;1.80;;;;;;;17.18;44.32;100191.14;1758695;81;21967;-73
2022/10/19 11:52:17;;;;;;;3.72;1.57;;;;;;;17.34;42.99;100183.67;1758689;81;21672;-72
2022/10/19 11:55:02;;;;;;;3.03;1.50;;;;;;;17.78;42.18;100177.09;1758378;81;21271;-72
2022/10/19 11:57:52;;;;;;;2.93;1.50;;;;;;;17.78;42.18;100177.09;1789632;80;21638;-72